sensor_id;sensor_type;location;lat;lon;timestamp;P1;durP1;ratioP1;P2;durP2;ratioP2
75386;SDS011;63966;47.914;22.266;2023-07-13T00:00:26;58.72;;;13.82;;
75386;SDS011;63966;47.914;22.266;2023-07-13T00:03:30;88.20;;;14.15;;
75386;SDS011;63966;47.914;22.266;2023-07-13T00:06:37;28.15;;;12.90;;
75386;SDS011;63966;47.914;22.266;2023-07-13T00:09:41;32.43;;;12.47;;
75386;SDS011;63966;47.914;22.266;2023-07-13T00:12:44;35.87;;;12.77;;
75386;SDS011;63966;47.914;22.266;2023-07-13T00:15:47;33.78;;;12.98;;
75386;SDS011;63966;47.914;22.266;2023-07-13T00:18:51;41.70;;;14.45;;
75386;SDS011;63966;47.914;22.266;2023-07-13T00:21:55;28.10;;;13.35;;
75386;SDS011;63966;47.914;22.266;2023-07-13T00:25:00;20.83;;;13.17;;
75386;SDS011;63966;47.914;22.266;2023-07-13T00:28:04;22.33;;;13.90;;
75386;SDS011;63966;47.914;22.266;2023-07-13T00:31:08;21.00;;;13.30;;
75386;SDS011;63966;47.914;22.266;2023-07-13T00:34:13;18.45;;;12.40;;
75386;SDS011;63966;47.914;22.266;2023-07-13T00:37:16;20.50;;;14.05;;
75386;SDS011;63966;47.914;22.266;2023-07-13T00:40:20;23.20;;;14.73;;
75386;SDS011;63966;47.914;22.266;2023-07-13T00:43:26;58.67;;;14.50;;
75386;SDS011;63966;47.914;22.266;2023-07-13T00:46:31;32.38;;;13.82;;
75386;SDS011;63966;47.914;22.266;2023-07-13T00:49:37;21.90;;;14.38;;
75386;SDS011;63966;47.914;22.266;2023-07-13T00:52:41;21.90;;;14.00;;
75386;SDS011;63966;47.914;22.266;2023-07-13T00:55:48;21.07;;;14.50;;
75386;SDS011;63966;47.914;22.266;2023-07-13T00:58:53;23.27;;;14.17;;
75386;SDS011;63966;47.914;22.266;2023-07-13T01:01:57;20.30;;;13.48;;
75386;SDS011;63966;47.914;22.266;2023-07-13T01:05:08;26.92;;;15.02;;
75386;SDS011;63966;47.914;22.266;2023-07-13T01:08:19;38.10;;;15.25;;
75386;SDS011;63966;47.914;22.266;2023-07-13T01:11:23;31.47;;;14.23;;
75386;SDS011;63966;47.914;22.266;2023-07-13T01:14:27;42.63;;;15.07;;
75386;SDS011;63966;47.914;22.266;2023-07-13T01:17:30;22.02;;;14.20;;
75386;SDS011;63966;47.914;22.266;2023-07-13T01:20:36;24.08;;;14.10;;
75386;SDS011;63966;47.914;22.266;2023-07-13T01:23:40;22.60;;;13.07;;
75386;SDS011;63966;47.914;22.266;2023-07-13T01:26:43;77.70;;;14.50;;
75386;SDS011;63966;47.914;22.266;2023-07-13T01:29:47;44.87;;;14.13;;
75386;SDS011;63966;47.914;22.266;2023-07-13T01:32:51;32.20;;;14.57;;
75386;SDS011;63966;47.914;22.266;2023-07-13T01:35:55;47.97;;;16.77;;
75386;SDS011;63966;47.914;22.266;2023-07-13T01:39:02;49.72;;;16.17;;
75386;SDS011;63966;47.914;22.266;2023-07-13T01:42:06;65.93;;;13.90;;
75386;SDS011;63966;47.914;22.266;2023-07-13T01:45:10;66.43;;;13.50;;
75386;SDS011;63966;47.914;22.266;2023-07-13T01:48:13;70.93;;;12.85;;
75386;SDS011;63966;47.914;22.266;2023-07-13T01:51:17;86.15;;;14.15;;
75386;SDS011;63966;47.914;22.266;2023-07-13T01:54:21;72.68;;;13.90;;
75386;SDS011;63966;47.914;22.266;2023-07-13T01:57:25;46.30;;;13.17;;
75386;SDS011;63966;47.914;22.266;2023-07-13T02:00:29;61.83;;;13.57;;
75386;SDS011;63966;47.914;22.266;2023-07-13T02:03:32;50.97;;;14.20;;
75386;SDS011;63966;47.914;22.266;2023-07-13T02:06:36;24.30;;;13.13;;
75386;SDS011;63966;47.914;22.266;2023-07-13T02:09:39;24.08;;;14.25;;
75386;SDS011;63966;47.914;22.266;2023-07-13T02:12:44;29.70;;;14.27;;
75386;SDS011;63966;47.914;22.266;2023-07-13T02:15:49;22.60;;;14.10;;
75386;SDS011;63966;47.914;22.266;2023-07-13T02:18:54;20.88;;;13.63;;
75386;SDS011;63966;47.914;22.266;2023-07-13T02:21:57;21.33;;;13.82;;
75386;SDS011;63966;47.914;22.266;2023-07-13T02:25:01;22.63;;;13.95;;
75386;SDS011;63966;47.914;22.266;2023-07-13T02:28:05;21.47;;;14.50;;
75386;SDS011;63966;47.914;22.266;2023-07-13T02:31:09;21.00;;;13.60;;
75386;SDS011;63966;47.914;22.266;2023-07-13T02:34:14;21.08;;;12.13;;
75386;SDS011;63966;47.914;22.266;2023-07-13T02:37:18;20.63;;;13.75;;
75386;SDS011;63966;47.914;22.266;2023-07-13T02:40:21;20.40;;;13.82;;
75386;SDS011;63966;47.914;22.266;2023-07-13T02:43:26;21.30;;;13.10;;
75386;SDS011;63966;47.914;22.266;2023-07-13T02:46:31;19.13;;;13.77;;
75386;SDS011;63966;47.914;22.266;2023-07-13T02:49:35;18.92;;;12.35;;
75386;SDS011;63966;47.914;22.266;2023-07-13T02:52:39;19.00;;;13.07;;
75386;SDS011;63966;47.914;22.266;2023-07-13T02:55:42;19.30;;;12.65;;
75386;SDS011;63966;47.914;22.266;2023-07-13T02:58:49;17.67;;;12.23;;
75386;SDS011;63966;47.914;22.266;2023-07-13T03:01:53;16.13;;;12.07;;
75386;SDS011;63966;47.914;22.266;2023-07-13T03:04:57;18.77;;;12.40;;
75386;SDS011;63966;47.914;22.266;2023-07-13T03:08:01;15.80;;;11.27;;
75386;SDS011;63966;47.914;22.266;2023-07-13T03:11:19;17.05;;;11.48;;
75386;SDS011;63966;47.914;22.266;2023-07-13T03:14:29;17.93;;;10.70;;
75386;SDS011;63966;47.914;22.266;2023-07-13T03:17:34;15.50;;;11.60;;
75386;SDS011;63966;47.914;22.266;2023-07-13T03:20:38;17.90;;;11.18;;
75386;SDS011;63966;47.914;22.266;2023-07-13T03:23:42;15.68;;;11.27;;
75386;SDS011;63966;47.914;22.266;2023-07-13T03:26:45;18.05;;;11.10;;
75386;SDS011;63966;47.914;22.266;2023-07-13T03:29:49;14.20;;;10.27;;
75386;SDS011;63966;47.914;22.266;2023-07-13T03:32:53;16.53;;;9.87;;
75386;SDS011;63966;47.914;22.266;2023-07-13T03:35:56;17.50;;;10.70;;
75386;SDS011;63966;47.914;22.266;2023-07-13T03:39:01;15.10;;;10.73;;
75386;SDS011;63966;47.914;22.266;2023-07-13T03:42:11;16.23;;;10.32;;
75386;SDS011;63966;47.914;22.266;2023-07-13T03:45:15;15.43;;;10.63;;
75386;SDS011;63966;47.914;22.266;2023-07-13T03:48:18;17.87;;;10.23;;
75386;SDS011;63966;47.914;22.266;2023-07-13T03:51:21;15.57;;;10.30;;
75386;SDS011;63966;47.914;22.266;2023-07-13T03:54:26;14.40;;;9.35;;
75386;SDS011;63966;47.914;22.266;2023-07-13T03:57:30;16.00;;;9.95;;
75386;SDS011;63966;47.914;22.266;2023-07-13T04:00:34;13.73;;;9.77;;
75386;SDS011;63966;47.914;22.266;2023-07-13T04:03:37;14.20;;;9.87;;
75386;SDS011;63966;47.914;22.266;2023-07-13T04:06:41;17.20;;;9.07;;
75386;SDS011;63966;47.914;22.266;2023-07-13T04:09:46;14.40;;;9.65;;
75386;SDS011;63966;47.914;22.266;2023-07-13T04:12:50;14.23;;;9.30;;
75386;SDS011;63966;47.914;22.266;2023-07-13T04:15:53;16.07;;;10.53;;
75386;SDS011;63966;47.914;22.266;2023-07-13T04:18:57;14.30;;;9.43;;
75386;SDS011;63966;47.914;22.266;2023-07-13T04:22:03;14.65;;;9.20;;
75386;SDS011;63966;47.914;22.266;2023-07-13T04:25:06;11.93;;;8.63;;
75386;SDS011;63966;47.914;22.266;2023-07-13T04:28:10;13.80;;;8.15;;
75386;SDS011;63966;47.914;22.266;2023-07-13T04:31:13;13.40;;;8.10;;
75386;SDS011;63966;47.914;22.266;2023-07-13T04:34:17;11.60;;;7.60;;
75386;SDS011;63966;47.914;22.266;2023-07-13T04:37:21;13.90;;;8.98;;
75386;SDS011;63966;47.914;22.266;2023-07-13T04:40:25;11.48;;;8.35;;
75386;SDS011;63966;47.914;22.266;2023-07-13T04:43:30;14.20;;;8.57;;
75386;SDS011;63966;47.914;22.266;2023-07-13T04:46:34;14.30;;;8.83;;
75386;SDS011;63966;47.914;22.266;2023-07-13T04:49:37;15.73;;;8.70;;
75386;SDS011;63966;47.914;22.266;2023-07-13T04:52:41;12.68;;;8.38;;
75386;SDS011;63966;47.914;22.266;2023-07-13T04:55:45;12.75;;;8.68;;
75386;SDS011;63966;47.914;22.266;2023-07-13T04:58:49;12.95;;;9.00;;
75386;SDS011;63966;47.914;22.266;2023-07-13T05:01:52;14.23;;;8.77;;
75386;SDS011;63966;47.914;22.266;2023-07-13T05:04:56;13.93;;;9.00;;
75386;SDS011;63966;47.914;22.266;2023-07-13T05:08:00;15.73;;;9.70;;
75386;SDS011;63966;47.914;22.266;2023-07-13T05:11:04;14.18;;;9.88;;
75386;SDS011;63966;47.914;22.266;2023-07-13T05:14:09;13.68;;;9.95;;
75386;SDS011;63966;47.914;22.266;2023-07-13T05:17:13;13.63;;;9.43;;
75386;SDS011;63966;47.914;22.266;2023-07-13T05:20:17;11.67;;;8.90;;
75386;SDS011;63966;47.914;22.266;2023-07-13T05:23:21;14.25;;;8.50;;
75386;SDS011;63966;47.914;22.266;2023-07-13T05:26:24;13.68;;;8.90;;
75386;SDS011;63966;47.914;22.266;2023-07-13T05:29:28;14.52;;;9.93;;
75386;SDS011;63966;47.914;22.266;2023-07-13T05:32:32;16.73;;;10.27;;
75386;SDS011;63966;47.914;22.266;2023-07-13T05:35:36;15.87;;;10.47;;
75386;SDS011;63966;47.914;22.266;2023-07-13T05:38:39;16.83;;;10.20;;
75386;SDS011;63966;47.914;22.266;2023-07-13T05:41:43;12.93;;;10.27;;
75386;SDS011;63966;47.914;22.266;2023-07-13T05:44:47;14.93;;;10.25;;
75386;SDS011;63966;47.914;22.266;2023-07-13T05:47:50;14.70;;;10.77;;
75386;SDS011;63966;47.914;22.266;2023-07-13T05:50:54;15.93;;;11.63;;
75386;SDS011;63966;47.914;22.266;2023-07-13T05:53:57;15.77;;;12.05;;
75386;SDS011;63966;47.914;22.266;2023-07-13T05:57:00;16.92;;;12.13;;
75386;SDS011;63966;47.914;22.266;2023-07-13T06:00:04;15.85;;;11.95;;
75386;SDS011;63966;47.914;22.266;2023-07-13T06:03:13;17.00;;;12.30;;
75386;SDS011;63966;47.914;22.266;2023-07-13T06:06:19;13.20;;;11.13;;
75386;SDS011;63966;47.914;22.266;2023-07-13T06:09:23;17.27;;;12.55;;
75386;SDS011;63966;47.914;22.266;2023-07-13T06:12:26;16.65;;;12.63;;
75386;SDS011;63966;47.914;22.266;2023-07-13T06:15:30;17.13;;;12.63;;
75386;SDS011;63966;47.914;22.266;2023-07-13T06:18:34;14.50;;;12.10;;
75386;SDS011;63966;47.914;22.266;2023-07-13T06:21:39;14.97;;;11.90;;
75386;SDS011;63966;47.914;22.266;2023-07-13T06:24:42;16.88;;;12.65;;
75386;SDS011;63966;47.914;22.266;2023-07-13T06:27:46;13.68;;;12.00;;
75386;SDS011;63966;47.914;22.266;2023-07-13T06:30:49;15.75;;;11.57;;
75386;SDS011;63966;47.914;22.266;2023-07-13T06:33:53;14.80;;;12.02;;
75386;SDS011;63966;47.914;22.266;2023-07-13T06:36:56;15.40;;;11.97;;
75386;SDS011;63966;47.914;22.266;2023-07-13T06:40:00;15.20;;;12.00;;
75386;SDS011;63966;47.914;22.266;2023-07-13T06:43:03;12.65;;;10.73;;
75386;SDS011;63966;47.914;22.266;2023-07-13T06:46:07;16.90;;;11.93;;
75386;SDS011;63966;47.914;22.266;2023-07-13T06:49:10;12.43;;;10.43;;
75386;SDS011;63966;47.914;22.266;2023-07-13T06:52:14;13.77;;;10.60;;
75386;SDS011;63966;47.914;22.266;2023-07-13T06:55:17;13.18;;;10.75;;
75386;SDS011;63966;47.914;22.266;2023-07-13T06:58:20;15.40;;;11.05;;
75386;SDS011;63966;47.914;22.266;2023-07-13T07:01:25;13.35;;;9.73;;
75386;SDS011;63966;47.914;22.266;2023-07-13T07:04:28;15.90;;;11.25;;
75386;SDS011;63966;47.914;22.266;2023-07-13T07:07:31;15.50;;;11.60;;
75386;SDS011;63966;47.914;22.266;2023-07-13T07:10:35;16.17;;;11.95;;
75386;SDS011;63966;47.914;22.266;2023-07-13T07:13:38;15.65;;;11.23;;
75386;SDS011;63966;47.914;22.266;2023-07-13T07:16:42;14.13;;;10.68;;
75386;SDS011;63966;47.914;22.266;2023-07-13T07:19:45;17.70;;;11.43;;
75386;SDS011;63966;47.914;22.266;2023-07-13T07:22:49;17.83;;;11.80;;
75386;SDS011;63966;47.914;22.266;2023-07-13T07:25:52;16.05;;;12.70;;
75386;SDS011;63966;47.914;22.266;2023-07-13T07:28:56;15.50;;;12.60;;
75386;SDS011;63966;47.914;22.266;2023-07-13T07:32:02;16.38;;;11.70;;
75386;SDS011;63966;47.914;22.266;2023-07-13T07:35:26;16.50;;;11.45;;
75386;SDS011;63966;47.914;22.266;2023-07-13T07:38:33;18.13;;;11.47;;
75386;SDS011;63966;47.914;22.266;2023-07-13T07:41:37;16.92;;;11.73;;
75386;SDS011;63966;47.914;22.266;2023-07-13T07:44:43;16.38;;;12.60;;
75386;SDS011;63966;47.914;22.266;2023-07-13T07:47:47;18.65;;;12.27;;
75386;SDS011;63966;47.914;22.266;2023-07-13T07:50:50;15.40;;;11.53;;
75386;SDS011;63966;47.914;22.266;2023-07-13T07:53:54;16.93;;;12.07;;
75386;SDS011;63966;47.914;22.266;2023-07-13T07:56:57;19.98;;;13.55;;
75386;SDS011;63966;47.914;22.266;2023-07-13T08:00:20;17.23;;;5.63;;
75386;SDS011;63966;47.914;22.266;2023-07-13T08:03:27;11.32;;;4.22;;
75386;SDS011;63966;47.914;22.266;2023-07-13T08:06:50;10.27;;;4.87;;
75386;SDS011;63966;47.914;22.266;2023-07-13T08:09:54;11.20;;;3.40;;
75386;SDS011;63966;47.914;22.266;2023-07-13T08:12:57;10.65;;;2.78;;
75386;SDS011;63966;47.914;22.266;2023-07-13T08:16:04;5.78;;;2.58;;
75386;SDS011;63966;47.914;22.266;2023-07-13T08:19:08;10.48;;;2.22;;
75386;SDS011;63966;47.914;22.266;2023-07-13T08:22:11;6.30;;;2.30;;
75386;SDS011;63966;47.914;22.266;2023-07-13T08:25:15;7.17;;;2.67;;
75386;SDS011;63966;47.914;22.266;2023-07-13T08:28:19;6.00;;;2.60;;
75386;SDS011;63966;47.914;22.266;2023-07-13T08:31:25;11.32;;;3.05;;
75386;SDS011;63966;47.914;22.266;2023-07-13T08:34:29;9.00;;;3.03;;
75386;SDS011;63966;47.914;22.266;2023-07-13T08:37:32;7.57;;;2.70;;
75386;SDS011;63966;47.914;22.266;2023-07-13T08:40:35;9.77;;;3.40;;
75386;SDS011;63966;47.914;22.266;2023-07-13T08:43:39;9.68;;;3.50;;
75386;SDS011;63966;47.914;22.266;2023-07-13T08:46:44;7.05;;;2.83;;
75386;SDS011;63966;47.914;22.266;2023-07-13T08:49:49;9.02;;;3.17;;
75386;SDS011;63966;47.914;22.266;2023-07-13T08:52:53;6.33;;;2.50;;
75386;SDS011;63966;47.914;22.266;2023-07-13T08:55:58;5.23;;;2.17;;
75386;SDS011;63966;47.914;22.266;2023-07-13T08:59:04;8.63;;;2.58;;
75386;SDS011;63966;47.914;22.266;2023-07-13T09:05:58;7.93;;;2.08;;
75386;SDS011;63966;47.914;22.266;2023-07-13T09:09:07;8.33;;;2.40;;
75386;SDS011;63966;47.914;22.266;2023-07-13T09:12:30;7.57;;;2.30;;
75386;SDS011;63966;47.914;22.266;2023-07-13T09:15:44;10.07;;;2.88;;
75386;SDS011;63966;47.914;22.266;2023-07-13T09:18:49;7.93;;;2.72;;
75386;SDS011;63966;47.914;22.266;2023-07-13T09:21:55;7.88;;;2.60;;
75386;SDS011;63966;47.914;22.266;2023-07-13T09:25:03;9.00;;;2.90;;
75386;SDS011;63966;47.914;22.266;2023-07-13T09:28:24;11.03;;;3.43;;
75386;SDS011;63966;47.914;22.266;2023-07-13T09:34:36;8.27;;;3.83;;
75386;SDS011;63966;47.914;22.266;2023-07-13T09:37:39;11.80;;;4.38;;
75386;SDS011;63966;47.914;22.266;2023-07-13T09:44:18;9.37;;;3.70;;
75386;SDS011;63966;47.914;22.266;2023-07-13T09:47:39;9.63;;;3.80;;
75386;SDS011;63966;47.914;22.266;2023-07-13T09:50:43;11.45;;;3.72;;
75386;SDS011;63966;47.914;22.266;2023-07-13T09:53:47;11.07;;;4.00;;
75386;SDS011;63966;47.914;22.266;2023-07-13T09:56:55;10.80;;;4.13;;
75386;SDS011;63966;47.914;22.266;2023-07-13T10:00:02;9.90;;;3.50;;
75386;SDS011;63966;47.914;22.266;2023-07-13T10:03:22;8.93;;;3.33;;
75386;SDS011;63966;47.914;22.266;2023-07-13T10:06:30;11.45;;;4.10;;
75386;SDS011;63966;47.914;22.266;2023-07-13T10:09:33;9.32;;;4.13;;
75386;SDS011;63966;47.914;22.266;2023-07-13T10:12:37;9.80;;;3.97;;
75386;SDS011;63966;47.914;22.266;2023-07-13T10:15:41;9.43;;;3.60;;
75386;SDS011;63966;47.914;22.266;2023-07-13T10:18:48;11.05;;;4.10;;
75386;SDS011;63966;47.914;22.266;2023-07-13T10:22:01;11.27;;;4.40;;
75386;SDS011;63966;47.914;22.266;2023-07-13T10:25:16;9.45;;;4.15;;
75386;SDS011;63966;47.914;22.266;2023-07-13T10:28:27;13.80;;;4.60;;
75386;SDS011;63966;47.914;22.266;2023-07-13T10:31:37;10.17;;;4.43;;
75386;SDS011;63966;47.914;22.266;2023-07-13T10:34:42;11.65;;;4.03;;
75386;SDS011;63966;47.914;22.266;2023-07-13T10:40:56;9.77;;;4.30;;
75386;SDS011;63966;47.914;22.266;2023-07-13T10:44:06;14.00;;;4.90;;
75386;SDS011;63966;47.914;22.266;2023-07-13T10:47:19;12.80;;;4.90;;
75386;SDS011;63966;47.914;22.266;2023-07-13T10:50:24;12.32;;;5.10;;
75386;SDS011;63966;47.914;22.266;2023-07-13T10:53:33;12.60;;;6.15;;
75386;SDS011;63966;47.914;22.266;2023-07-13T10:56:38;12.63;;;6.10;;
75386;SDS011;63966;47.914;22.266;2023-07-13T10:59:43;9.20;;;5.90;;
75386;SDS011;63966;47.914;22.266;2023-07-13T11:03:11;12.33;;;6.33;;
75386;SDS011;63966;47.914;22.266;2023-07-13T11:12:53;12.43;;;6.40;;
75386;SDS011;63966;47.914;22.266;2023-07-13T11:15:57;16.13;;;6.95;;
75386;SDS011;63966;47.914;22.266;2023-07-13T11:28:31;10.25;;;6.10;;
75386;SDS011;63966;47.914;22.266;2023-07-13T11:31:36;10.75;;;5.90;;
75386;SDS011;63966;47.914;22.266;2023-07-13T11:34:40;12.80;;;6.47;;
75386;SDS011;63966;47.914;22.266;2023-07-13T11:37:44;11.23;;;6.13;;
75386;SDS011;63966;47.914;22.266;2023-07-13T11:40:50;10.40;;;6.00;;
75386;SDS011;63966;47.914;22.266;2023-07-13T11:44:14;9.98;;;5.47;;
75386;SDS011;63966;47.914;22.266;2023-07-13T11:47:18;11.45;;;5.80;;
75386;SDS011;63966;47.914;22.266;2023-07-13T11:50:25;11.77;;;5.97;;
75386;SDS011;63966;47.914;22.266;2023-07-13T11:53:37;12.10;;;5.47;;
75386;SDS011;63966;47.914;22.266;2023-07-13T11:56:42;10.18;;;5.75;;
75386;SDS011;63966;47.914;22.266;2023-07-13T11:59:45;11.20;;;5.25;;
75386;SDS011;63966;47.914;22.266;2023-07-13T12:02:50;10.38;;;5.20;;
75386;SDS011;63966;47.914;22.266;2023-07-13T12:05:56;10.20;;;4.60;;
75386;SDS011;63966;47.914;22.266;2023-07-13T12:09:11;9.00;;;5.20;;
75386;SDS011;63966;47.914;22.266;2023-07-13T12:12:17;10.00;;;5.82;;
75386;SDS011;63966;47.914;22.266;2023-07-13T12:15:26;8.20;;;5.45;;
75386;SDS011;63966;47.914;22.266;2023-07-13T12:18:37;11.02;;;5.82;;
75386;SDS011;63966;47.914;22.266;2023-07-13T12:21:42;8.37;;;5.30;;
75386;SDS011;63966;47.914;22.266;2023-07-13T12:24:47;8.45;;;4.88;;
75386;SDS011;63966;47.914;22.266;2023-07-13T12:27:51;8.45;;;5.28;;
75386;SDS011;63966;47.914;22.266;2023-07-13T12:30:57;7.75;;;4.90;;
75386;SDS011;63966;47.914;22.266;2023-07-13T12:34:07;8.95;;;4.75;;
75386;SDS011;63966;47.914;22.266;2023-07-13T12:37:13;8.67;;;5.07;;
75386;SDS011;63966;47.914;22.266;2023-07-13T12:40:19;8.73;;;5.30;;
75386;SDS011;63966;47.914;22.266;2023-07-13T12:43:28;9.15;;;4.55;;
75386;SDS011;63966;47.914;22.266;2023-07-13T12:46:39;8.20;;;4.25;;
75386;SDS011;63966;47.914;22.266;2023-07-13T12:49:55;8.48;;;4.57;;
75386;SDS011;63966;47.914;22.266;2023-07-13T12:53:02;7.90;;;4.40;;
75386;SDS011;63966;47.914;22.266;2023-07-13T12:56:13;6.90;;;4.43;;
75386;SDS011;63966;47.914;22.266;2023-07-13T12:59:25;7.70;;;4.15;;
75386;SDS011;63966;47.914;22.266;2023-07-13T13:02:33;7.00;;;4.68;;
75386;SDS011;63966;47.914;22.266;2023-07-13T13:05:37;7.78;;;4.40;;
75386;SDS011;63966;47.914;22.266;2023-07-13T13:08:41;7.10;;;4.20;;
75386;SDS011;63966;47.914;22.266;2023-07-13T13:11:45;9.40;;;4.28;;
75386;SDS011;63966;47.914;22.266;2023-07-13T13:14:49;7.45;;;4.28;;
75386;SDS011;63966;47.914;22.266;2023-07-13T13:17:54;5.55;;;3.72;;
75386;SDS011;63966;47.914;22.266;2023-07-13T13:20:58;6.93;;;4.40;;
75386;SDS011;63966;47.914;22.266;2023-07-13T13:24:04;7.60;;;4.70;;
75386;SDS011;63966;47.914;22.266;2023-07-13T13:27:25;8.52;;;5.18;;
75386;SDS011;63966;47.914;22.266;2023-07-13T13:30:28;7.70;;;5.10;;
75386;SDS011;63966;47.914;22.266;2023-07-13T13:33:32;9.38;;;5.20;;
75386;SDS011;63966;47.914;22.266;2023-07-13T13:36:36;8.50;;;5.90;;
75386;SDS011;63966;47.914;22.266;2023-07-13T13:39:39;7.77;;;5.13;;
75386;SDS011;63966;47.914;22.266;2023-07-13T13:42:53;9.20;;;5.22;;
75386;SDS011;63966;47.914;22.266;2023-07-13T13:45:59;7.82;;;5.35;;
75386;SDS011;63966;47.914;22.266;2023-07-13T13:49:03;10.82;;;5.97;;
75386;SDS011;63966;47.914;22.266;2023-07-13T13:52:08;9.55;;;5.72;;
75386;SDS011;63966;47.914;22.266;2023-07-13T13:55:16;11.90;;;7.07;;
75386;SDS011;63966;47.914;22.266;2023-07-13T13:58:21;10.07;;;6.63;;
75386;SDS011;63966;47.914;22.266;2023-07-13T14:01:24;12.25;;;7.18;;
75386;SDS011;63966;47.914;22.266;2023-07-13T14:04:33;13.20;;;7.32;;
75386;SDS011;63966;47.914;22.266;2023-07-13T14:07:36;14.73;;;7.80;;
75386;SDS011;63966;47.914;22.266;2023-07-13T14:10:40;10.73;;;6.77;;
75386;SDS011;63966;47.914;22.266;2023-07-13T14:13:45;9.60;;;6.65;;
75386;SDS011;63966;47.914;22.266;2023-07-13T14:16:51;9.23;;;6.55;;
75386;SDS011;63966;47.914;22.266;2023-07-13T14:19:57;9.43;;;6.20;;
75386;SDS011;63966;47.914;22.266;2023-07-13T14:23:01;10.18;;;6.65;;
75386;SDS011;63966;47.914;22.266;2023-07-13T14:26:09;8.60;;;6.30;;
75386;SDS011;63966;47.914;22.266;2023-07-13T14:29:16;10.88;;;5.93;;
75386;SDS011;63966;47.914;22.266;2023-07-13T14:32:25;8.88;;;5.10;;
75386;SDS011;63966;47.914;22.266;2023-07-13T14:35:28;8.65;;;5.32;;
75386;SDS011;63966;47.914;22.266;2023-07-13T14:38:32;8.52;;;5.05;;
75386;SDS011;63966;47.914;22.266;2023-07-13T14:41:35;7.47;;;4.90;;
75386;SDS011;63966;47.914;22.266;2023-07-13T14:44:39;8.18;;;4.30;;
75386;SDS011;63966;47.914;22.266;2023-07-13T14:47:43;8.15;;;4.25;;
75386;SDS011;63966;47.914;22.266;2023-07-13T14:50:50;9.27;;;3.92;;
75386;SDS011;63966;47.914;22.266;2023-07-13T14:54:01;7.95;;;3.95;;
75386;SDS011;63966;47.914;22.266;2023-07-13T14:57:14;7.67;;;3.83;;
75386;SDS011;63966;47.914;22.266;2023-07-13T15:00:20;6.50;;;3.80;;
75386;SDS011;63966;47.914;22.266;2023-07-13T15:03:25;6.78;;;4.25;;
75386;SDS011;63966;47.914;22.266;2023-07-13T15:06:29;5.97;;;3.60;;
75386;SDS011;63966;47.914;22.266;2023-07-13T15:09:33;8.00;;;3.97;;
75386;SDS011;63966;47.914;22.266;2023-07-13T15:12:37;6.93;;;3.80;;
75386;SDS011;63966;47.914;22.266;2023-07-13T15:15:40;6.78;;;4.10;;
75386;SDS011;63966;47.914;22.266;2023-07-13T15:18:46;6.35;;;3.97;;
75386;SDS011;63966;47.914;22.266;2023-07-13T15:21:50;7.97;;;3.60;;
75386;SDS011;63966;47.914;22.266;2023-07-13T15:24:54;6.95;;;3.80;;
75386;SDS011;63966;47.914;22.266;2023-07-13T15:28:02;6.07;;;3.37;;
75386;SDS011;63966;47.914;22.266;2023-07-13T15:31:08;10.13;;;3.58;;
75386;SDS011;63966;47.914;22.266;2023-07-13T15:34:23;6.78;;;3.50;;
75386;SDS011;63966;47.914;22.266;2023-07-13T15:37:28;6.63;;;3.60;;
75386;SDS011;63966;47.914;22.266;2023-07-13T15:40:32;5.55;;;3.20;;
75386;SDS011;63966;47.914;22.266;2023-07-13T15:43:35;8.97;;;3.70;;
75386;SDS011;63966;47.914;22.266;2023-07-13T15:46:39;6.07;;;3.17;;
75386;SDS011;63966;47.914;22.266;2023-07-13T15:49:43;8.98;;;4.07;;
75386;SDS011;63966;47.914;22.266;2023-07-13T15:52:51;6.47;;;3.67;;
75386;SDS011;63966;47.914;22.266;2023-07-13T15:55:56;6.35;;;3.30;;
75386;SDS011;63966;47.914;22.266;2023-07-13T15:59:00;5.67;;;3.13;;
75386;SDS011;63966;47.914;22.266;2023-07-13T16:02:16;6.85;;;3.25;;
75386;SDS011;63966;47.914;22.266;2023-07-13T16:05:21;8.15;;;3.35;;
75386;SDS011;63966;47.914;22.266;2023-07-13T16:08:27;7.07;;;3.28;;
75386;SDS011;63966;47.914;22.266;2023-07-13T16:11:34;6.50;;;3.38;;
75386;SDS011;63966;47.914;22.266;2023-07-13T16:14:40;6.37;;;3.10;;
75386;SDS011;63966;47.914;22.266;2023-07-13T16:17:44;5.75;;;2.97;;
75386;SDS011;63966;47.914;22.266;2023-07-13T16:20:49;6.68;;;3.00;;
75386;SDS011;63966;47.914;22.266;2023-07-13T16:23:54;6.57;;;3.35;;
75386;SDS011;63966;47.914;22.266;2023-07-13T16:27:06;5.15;;;3.05;;
75386;SDS011;63966;47.914;22.266;2023-07-13T16:30:16;6.10;;;3.10;;
75386;SDS011;63966;47.914;22.266;2023-07-13T16:33:23;6.50;;;3.30;;
75386;SDS011;63966;47.914;22.266;2023-07-13T16:36:27;5.07;;;2.85;;
75386;SDS011;63966;47.914;22.266;2023-07-13T16:39:32;6.07;;;3.38;;
75386;SDS011;63966;47.914;22.266;2023-07-13T16:42:36;6.45;;;3.10;;
75386;SDS011;63966;47.914;22.266;2023-07-13T16:45:40;5.70;;;2.70;;
75386;SDS011;63966;47.914;22.266;2023-07-13T17:00:11;6.32;;;3.50;;
75386;SDS011;63966;47.914;22.266;2023-07-13T17:03:21;7.70;;;3.40;;
75386;SDS011;63966;47.914;22.266;2023-07-13T17:06:26;6.35;;;3.40;;
75386;SDS011;63966;47.914;22.266;2023-07-13T17:09:32;5.97;;;3.10;;
75386;SDS011;63966;47.914;22.266;2023-07-13T17:12:35;6.75;;;3.58;;
75386;SDS011;63966;47.914;22.266;2023-07-13T17:15:39;6.72;;;3.30;;
75386;SDS011;63966;47.914;22.266;2023-07-13T17:18:42;7.38;;;3.78;;
75386;SDS011;63966;47.914;22.266;2023-07-13T17:21:47;5.40;;;2.80;;
75386;SDS011;63966;47.914;22.266;2023-07-13T17:24:52;9.27;;;3.20;;
75386;SDS011;63966;47.914;22.266;2023-07-13T17:27:56;6.28;;;2.88;;
75386;SDS011;63966;47.914;22.266;2023-07-13T17:31:00;5.85;;;2.60;;
75386;SDS011;63966;47.914;22.266;2023-07-13T17:34:04;6.15;;;2.50;;
75386;SDS011;63966;47.914;22.266;2023-07-13T17:37:17;4.43;;;2.10;;
75386;SDS011;63966;47.914;22.266;2023-07-13T17:40:21;4.13;;;1.73;;
75386;SDS011;63966;47.914;22.266;2023-07-13T17:43:26;4.10;;;2.00;;
75386;SDS011;63966;47.914;22.266;2023-07-13T17:46:30;4.40;;;2.17;;
75386;SDS011;63966;47.914;22.266;2023-07-13T17:49:37;4.57;;;2.30;;
75386;SDS011;63966;47.914;22.266;2023-07-13T17:52:40;4.83;;;2.50;;
75386;SDS011;63966;47.914;22.266;2023-07-13T17:55:44;7.53;;;3.37;;
75386;SDS011;63966;47.914;22.266;2023-07-13T17:58:50;5.95;;;3.40;;
75386;SDS011;63966;47.914;22.266;2023-07-13T18:01:53;5.95;;;3.47;;
75386;SDS011;63966;47.914;22.266;2023-07-13T18:04:57;6.38;;;3.55;;
75386;SDS011;63966;47.914;22.266;2023-07-13T18:08:02;7.20;;;3.93;;
75386;SDS011;63966;47.914;22.266;2023-07-13T18:11:08;6.93;;;3.83;;
75386;SDS011;63966;47.914;22.266;2023-07-13T18:14:13;7.10;;;3.58;;
75386;SDS011;63966;47.914;22.266;2023-07-13T18:17:17;6.57;;;3.30;;
75386;SDS011;63966;47.914;22.266;2023-07-13T18:20:21;11.70;;;3.92;;
75386;SDS011;63966;47.914;22.266;2023-07-13T18:23:25;9.50;;;4.37;;
75386;SDS011;63966;47.914;22.266;2023-07-13T18:26:28;8.90;;;4.10;;
75386;SDS011;63966;47.914;22.266;2023-07-13T18:29:32;7.93;;;3.97;;
75386;SDS011;63966;47.914;22.266;2023-07-13T18:32:35;8.23;;;3.80;;
75386;SDS011;63966;47.914;22.266;2023-07-13T18:35:43;8.15;;;4.00;;
75386;SDS011;63966;47.914;22.266;2023-07-13T18:38:47;6.63;;;3.83;;
75386;SDS011;63966;47.914;22.266;2023-07-13T18:41:50;11.63;;;4.70;;
75386;SDS011;63966;47.914;22.266;2023-07-13T18:44:53;8.00;;;4.45;;
75386;SDS011;63966;47.914;22.266;2023-07-13T18:47:59;8.27;;;4.32;;